Coral Harbour, Canada
Current Conditions -  °F | °C
As of 5:00 PM on Thursday 27 Nov 2014 (Local Time) from CYZS Reporting Station
Few Clouds Few Clouds  
Wind Chill: -52°   Ceiling: Unl
Heat Index: -33°   Visibility: 15mi
Dew Point: -40°   Wind: 7mph
Humidity: 68%   Direction: 320°NW
Pressure: 29.57"   Gusts: NA
Location:  64.14°N, 83.17°W
Report Text: CYZS 272200Z 32006KT 15SM FEW020 FEW210 M36/M40 A2957 RMKSC1CI1 SLP026
Loading
Personal Weather Stations






























Interactive Weather Map New forecast layout! Learn more

10-Day Weather Forecast

Advertisements
Track Severe Weather on mobile